createdAt,value
2023-01-13T00:01:24.160Z,20.93
2023-01-13T00:03:51.310Z,18.98
2023-01-13T00:06:25.759Z,24.10
2023-01-13T00:08:53.042Z,26.95
2023-01-13T00:11:21.374Z,23.95
2023-01-13T00:13:48.176Z,18.57
2023-01-13T00:16:17.299Z,19.60
2023-01-13T00:18:45.176Z,15.38
2023-01-13T00:21:24.120Z,25.40
2023-01-13T00:23:53.878Z,20.70
2023-01-13T00:26:26.969Z,23.03
2023-01-13T00:28:59.640Z,25.50
2023-01-13T00:31:28.472Z,26.58
2023-01-13T00:33:59.949Z,19.83
2023-01-13T00:36:27.380Z,24.58
2023-01-13T00:38:54.435Z,15.83
2023-01-13T00:41:23.618Z,26.25
2023-01-13T00:43:50.966Z,26.73
2023-01-13T00:46:20.600Z,24.40
2023-01-13T00:48:48.205Z,20.20
2023-01-13T00:51:18.303Z,24.33
2023-01-13T00:53:48.177Z,29.23
2023-01-13T00:56:40.877Z,18.55
2023-01-13T00:59:12.883Z,14.23
2023-01-13T01:01:41.018Z,20.25
2023-01-13T01:04:08.086Z,20.53
2023-01-13T01:06:34.852Z,18.95
2023-01-13T01:09:01.768Z,21.45
2023-01-13T01:11:31.327Z,21.38
2023-01-13T01:14:01.808Z,19.50
2023-01-13T01:16:30.787Z,18.27
2023-01-13T01:18:58.128Z,18.52
2023-01-13T01:21:26.757Z,21.55
2023-01-13T01:23:54.231Z,18.85
2023-01-13T01:26:23.464Z,17.65
2023-01-13T01:28:50.937Z,25.80
2023-01-13T01:31:38.003Z,23.33
2023-01-13T01:34:04.824Z,16.40
2023-01-13T01:36:31.741Z,18.30
2023-01-13T01:38:59.948Z,20.73
2023-01-13T01:41:29.803Z,37.43
2023-01-13T01:44:01.556Z,22.63
2023-01-13T01:46:33.377Z,23.52
2023-01-13T01:49:07.218Z,20.00
2023-01-13T01:51:39.322Z,19.25
2023-01-13T01:54:09.706Z,21.30
2023-01-13T01:56:39.844Z,20.55
2023-01-13T01:59:06.708Z,23.75
2023-01-13T02:01:34.369Z,26.27
2023-01-13T02:04:27.613Z,22.95
2023-01-13T02:06:56.678Z,18.67
2023-01-13T02:09:26.205Z,21.00
2023-01-13T02:12:11.525Z,21.02
2023-01-13T02:14:40.986Z,21.05
2023-01-13T02:17:27.977Z,19.65
2023-01-13T02:20:26.660Z,24.13
2023-01-13T02:23:46.132Z,21.13
2023-01-13T02:26:28.508Z,21.05
2023-01-13T02:29:14.347Z,19.20
2023-01-13T02:31:44.789Z,22.10
2023-01-13T02:34:20.490Z,20.17
2023-01-13T02:36:57.718Z,25.52
2023-01-13T02:39:33.213Z,21.85
2023-01-13T02:42:24.962Z,22.08
2023-01-13T02:44:57.513Z,20.55
2023-01-13T02:47:30.131Z,25.70
2023-01-13T02:50:02.156Z,25.77
2023-01-13T02:53:01.896Z,19.90
2023-01-13T02:55:42.891Z,20.77
2023-01-13T02:58:12.353Z,16.85
2023-01-13T03:00:40.349Z,21.80
2023-01-13T03:03:07.176Z,23.63
2023-01-13T03:05:34.427Z,22.75
2023-01-13T03:08:15.615Z,17.92
2023-01-13T03:11:03.199Z,24.92
2023-01-13T03:13:49.084Z,24.47
2023-01-13T03:16:38.489Z,25.45
2023-01-13T03:19:44.113Z,21.83
2023-01-13T03:22:33.966Z,19.92
2023-01-13T03:25:23.132Z,11.75
2023-01-13T03:28:01.590Z,22.20
2023-01-13T03:30:41.000Z,20.80
2023-01-13T03:33:23.912Z,23.77
2023-01-13T03:35:59.001Z,14.15
2023-01-13T03:38:32.655Z,17.20
2023-01-13T03:41:26.160Z,14.00
2023-01-13T03:44:22.027Z,17.30
2023-01-13T03:47:12.770Z,8.20
2023-01-13T03:49:55.862Z,13.93
2023-01-13T03:52:28.174Z,12.02
2023-01-13T03:55:07.267Z,11.10
2023-01-13T03:57:39.725Z,12.35
2023-01-13T04:00:10.264Z,10.95
2023-01-13T04:02:45.052Z,12.27
2023-01-13T04:05:12.845Z,13.30
2023-01-13T04:07:44.663Z,13.60
2023-01-13T04:10:14.317Z,13.15
2023-01-13T04:13:00.650Z,11.85
2023-01-13T04:15:31.485Z,8.15
2023-01-13T04:18:11.546Z,6.75
2023-01-13T04:20:39.860Z,13.17
2023-01-13T04:23:07.003Z,8.23
2023-01-13T04:25:34.089Z,6.25
2023-01-13T04:28:01.171Z,8.88
2023-01-13T04:30:28.103Z,9.70
2023-01-13T04:32:55.068Z,6.23
2023-01-13T04:35:21.846Z,9.30
2023-01-13T04:37:48.600Z,5.63
2023-01-13T04:40:15.653Z,8.52
2023-01-13T04:42:46.889Z,7.25
2023-01-13T04:45:14.509Z,9.60
2023-01-13T04:47:41.983Z,11.23
2023-01-13T04:50:10.119Z,9.43
2023-01-13T04:52:37.294Z,13.00
2023-01-13T04:55:04.435Z,9.15
2023-01-13T04:57:33.273Z,12.37
2023-01-13T05:00:02.629Z,8.05
2023-01-13T05:02:29.407Z,10.32
2023-01-13T05:04:56.204Z,9.75
2023-01-13T05:07:23.027Z,8.50
2023-01-13T05:09:49.900Z,7.30
2023-01-13T05:12:35.323Z,10.98
2023-01-13T05:15:20.682Z,9.40
2023-01-13T05:17:48.031Z,8.55
2023-01-13T05:20:14.897Z,11.32
2023-01-13T05:23:00.267Z,9.13
2023-01-13T05:25:28.107Z,14.23
2023-01-13T05:27:59.949Z,10.80
2023-01-13T05:30:33.107Z,8.70
2023-01-13T05:32:59.928Z,9.68
2023-01-13T05:35:26.782Z,14.87
2023-01-13T05:37:54.801Z,10.65
2023-01-13T05:40:40.770Z,15.90
2023-01-13T05:43:20.490Z,16.63
2023-01-13T05:45:56.129Z,13.52
2023-01-13T05:48:25.626Z,12.50
2023-01-13T05:50:54.169Z,9.13
2023-01-13T05:53:22.386Z,13.85
2023-01-13T05:55:50.390Z,10.43
2023-01-13T05:58:19.159Z,9.52
2023-01-13T06:00:46.591Z,10.83
2023-01-13T06:03:14.403Z,11.63
2023-01-13T06:05:41.786Z,11.52
2023-01-13T06:08:09.518Z,12.85
2023-01-13T06:10:36.396Z,10.60
2023-01-13T06:13:04.627Z,9.47
2023-01-13T06:15:31.961Z,16.80
2023-01-13T06:17:58.829Z,8.40
2023-01-13T06:20:25.637Z,10.32
2023-01-13T06:22:54.401Z,12.80
2023-01-13T06:25:24.208Z,11.50
2023-01-13T06:27:51.538Z,14.07
2023-01-13T06:30:18.729Z,20.77
2023-01-13T06:32:50.219Z,17.00
2023-01-13T06:35:21.552Z,10.00
2023-01-13T06:37:50.889Z,15.37
2023-01-13T06:40:18.627Z,12.93
2023-01-13T06:43:04.419Z,13.85
2023-01-13T06:45:31.815Z,17.33
2023-01-13T06:47:59.847Z,16.52
2023-01-13T06:50:28.049Z,13.23
2023-01-13T06:52:55.012Z,15.07
2023-01-13T06:55:21.764Z,11.55
2023-01-13T06:57:55.945Z,13.07
2023-01-13T07:00:23.859Z,14.27
2023-01-13T07:02:51.229Z,17.97
2023-01-13T07:05:19.581Z,18.25
2023-01-13T07:07:46.411Z,13.63
2023-01-13T07:10:22.186Z,17.30
2023-01-13T07:13:08.356Z,12.45
2023-01-13T07:15:35.446Z,14.23
2023-01-13T07:18:03.020Z,11.93
2023-01-13T07:20:30.675Z,15.40
2023-01-13T07:22:58.243Z,20.17
2023-01-13T07:25:25.100Z,16.42
2023-01-13T07:27:51.957Z,14.70
2023-01-13T07:30:19.233Z,17.35
2023-01-13T07:32:46.603Z,13.50
2023-01-13T07:35:13.651Z,17.38
2023-01-13T07:37:41.927Z,14.38
2023-01-13T07:40:09.610Z,11.07
2023-01-13T07:42:57.819Z,11.85
2023-01-13T07:45:24.769Z,17.83
2023-01-13T07:47:52.976Z,13.75
2023-01-13T07:50:21.550Z,14.25
2023-01-13T07:52:48.853Z,11.70
2023-01-13T07:55:15.848Z,11.82
2023-01-13T07:57:42.741Z,15.15
2023-01-13T08:00:12.754Z,11.50
2023-01-13T08:02:39.905Z,12.93
2023-01-13T08:05:07.329Z,9.23
2023-01-13T08:07:34.785Z,16.27
2023-01-13T08:10:02.634Z,16.67
2023-01-13T08:12:55.108Z,17.85
2023-01-13T08:15:23.488Z,15.88
2023-01-13T08:17:50.521Z,20.53
2023-01-13T08:20:17.753Z,13.63
2023-01-13T08:22:44.517Z,17.05
2023-01-13T08:25:11.339Z,16.25
2023-01-13T08:27:38.268Z,18.05
2023-01-13T08:30:05.926Z,11.20
2023-01-13T08:32:33.569Z,12.85
2023-01-13T08:35:00.356Z,15.52
2023-01-13T08:37:27.191Z,15.82
2023-01-13T08:39:54.072Z,13.02
2023-01-13T08:42:20.880Z,15.20
2023-01-13T08:44:48.768Z,14.63
2023-01-13T08:47:15.831Z,13.60
2023-01-13T08:49:42.699Z,15.35
2023-01-13T08:52:09.980Z,18.58
2023-01-13T08:54:38.719Z,15.27
2023-01-13T08:57:06.037Z,12.55
2023-01-13T08:59:33.589Z,15.27
2023-01-13T09:02:00.734Z,16.65
2023-01-13T09:04:29.219Z,14.43
2023-01-13T09:06:56.634Z,16.70
2023-01-13T09:09:25.339Z,17.98
2023-01-13T09:12:10.584Z,16.05
2023-01-13T09:14:38.736Z,17.00
2023-01-13T09:17:07.410Z,10.90
2023-01-13T09:19:35.083Z,9.10
2023-01-13T09:22:01.943Z,10.60
2023-01-13T09:24:29.043Z,15.50
2023-01-13T09:26:56.043Z,17.95
2023-01-13T09:29:22.952Z,17.35
2023-01-13T09:31:49.966Z,10.23
2023-01-13T09:34:37.507Z,15.32
2023-01-13T09:37:06.205Z,16.52
2023-01-13T09:39:34.209Z,16.20
2023-01-13T09:43:04.154Z,18.70
2023-01-13T09:45:40.500Z,13.77
2023-01-13T09:48:24.625Z,16.75
2023-01-13T09:51:06.416Z,17.90
2023-01-13T09:53:56.945Z,13.55
2023-01-13T09:56:25.172Z,13.55
2023-01-13T09:58:52.612Z,11.97
2023-01-13T10:01:45.961Z,18.58
2023-01-13T10:04:15.127Z,19.08
2023-01-13T10:06:49.931Z,14.85
2023-01-13T10:09:30.399Z,10.05
2023-01-13T10:12:19.417Z,13.43
2023-01-13T10:14:52.667Z,20.15
2023-01-13T10:17:28.488Z,12.57
2023-01-13T10:20:18.326Z,16.23
2023-01-13T10:23:27.931Z,12.00
2023-01-13T10:26:13.476Z,10.63
2023-01-13T10:28:40.345Z,10.05
2023-01-13T10:31:12.118Z,18.08
2023-01-13T10:33:39.069Z,14.32
2023-01-13T10:36:12.300Z,17.80
2023-01-13T10:38:44.899Z,16.97
2023-01-13T10:41:19.827Z,12.93
2023-01-13T10:43:52.621Z,22.75
2023-01-13T10:46:20.575Z,12.77
2023-01-13T10:48:53.711Z,20.45
2023-01-13T10:51:28.163Z,18.27
2023-01-13T10:53:57.493Z,16.00
2023-01-13T10:56:27.727Z,12.73
2023-01-13T10:59:14.204Z,11.90
2023-01-13T11:01:56.574Z,14.13
2023-01-13T11:04:36.846Z,10.30
2023-01-13T11:07:06.353Z,18.70
2023-01-13T11:09:33.671Z,14.98
2023-01-13T11:12:00.616Z,11.55
2023-01-13T11:14:42.655Z,11.65
2023-01-13T11:17:09.852Z,10.80
2023-01-13T11:19:42.605Z,13.38
2023-01-13T11:22:16.901Z,10.63
2023-01-13T11:25:03.852Z,13.88
2023-01-13T11:27:40.620Z,8.98
2023-01-13T11:30:34.958Z,9.67
2023-01-13T11:33:15.773Z,9.45
2023-01-13T11:35:48.887Z,14.18
2023-01-13T11:38:53.044Z,7.15
2023-01-13T11:41:25.571Z,12.70
2023-01-13T11:43:57.517Z,11.87
2023-01-13T11:46:27.194Z,8.27
2023-01-13T11:48:56.548Z,11.60
2023-01-13T11:51:34.439Z,10.63
2023-01-13T11:54:34.911Z,12.18
2023-01-13T11:57:37.131Z,14.17
2023-01-13T12:00:12.664Z,11.15
2023-01-13T12:02:50.789Z,13.50
2023-01-13T12:05:35.983Z,17.73
2023-01-13T12:08:26.194Z,11.02
2023-01-13T12:11:15.630Z,14.10
2023-01-13T12:14:21.970Z,12.88
2023-01-13T12:16:50.648Z,11.98
2023-01-13T12:19:29.661Z,10.13
2023-01-13T12:22:12.480Z,10.65
2023-01-13T12:24:55.308Z,9.57
2023-01-13T12:27:38.123Z,12.70
2023-01-13T12:30:37.094Z,11.13
2023-01-13T12:33:29.917Z,8.57
2023-01-13T12:36:12.927Z,14.82
2023-01-13T12:38:52.718Z,12.47
2023-01-13T12:41:30.796Z,9.45
2023-01-13T12:44:17.076Z,11.23
2023-01-13T12:46:54.486Z,7.95
2023-01-13T12:49:33.113Z,11.23
2023-01-13T12:52:13.899Z,11.60
2023-01-13T12:54:40.619Z,11.73
2023-01-13T12:57:32.630Z,10.20
2023-01-13T12:59:59.473Z,8.38
2023-01-13T13:02:31.347Z,12.23
2023-01-13T13:05:19.878Z,9.47
2023-01-13T13:07:52.732Z,10.57
2023-01-13T13:10:33.760Z,8.52
2023-01-13T13:13:20.352Z,13.75
2023-01-13T13:15:51.733Z,9.75
2023-01-13T13:18:19.513Z,7.43
2023-01-13T13:20:54.026Z,11.80
2023-01-13T13:23:27.491Z,10.75
2023-01-13T13:26:03.462Z,11.88
2023-01-13T13:28:37.663Z,9.48
2023-01-13T13:31:34.239Z,12.10
2023-01-13T13:34:24.148Z,14.00
2023-01-13T13:37:06.601Z,10.05
2023-01-13T13:39:52.374Z,11.85
2023-01-13T13:42:47.133Z,8.00
2023-01-13T13:45:44.393Z,8.00
2023-01-13T13:48:21.848Z,9.50
2023-01-13T13:50:50.916Z,8.70
2023-01-13T13:53:19.607Z,6.88
2023-01-13T13:56:01.730Z,7.70
2023-01-13T13:58:31.387Z,7.83
2023-01-13T14:00:59.731Z,11.45
2023-01-13T14:03:32.727Z,13.13
2023-01-13T14:06:05.568Z,13.43
2023-01-13T14:08:46.675Z,16.88
2023-01-13T14:11:28.867Z,10.70
2023-01-13T14:14:11.898Z,13.48
2023-01-13T14:16:40.612Z,7.45
2023-01-13T14:19:27.679Z,7.88
2023-01-13T14:21:54.660Z,10.98
2023-01-13T14:24:22.507Z,10.83
2023-01-13T14:26:53.131Z,9.43
2023-01-13T14:29:23.632Z,10.88
2023-01-13T14:31:52.833Z,10.60
2023-01-13T14:34:31.735Z,7.20
2023-01-13T14:37:00.797Z,5.63
2023-01-13T14:39:38.591Z,8.88
2023-01-13T14:42:12.561Z,13.05
2023-01-13T14:44:45.491Z,11.07
2023-01-13T14:47:28.106Z,10.40
2023-01-13T14:50:06.192Z,9.60
2023-01-13T14:52:47.057Z,9.18
2023-01-13T14:55:29.050Z,11.68
2023-01-13T14:58:25.352Z,7.85
2023-01-13T15:01:14.141Z,9.98
2023-01-13T15:03:42.009Z,12.70
2023-01-13T15:06:26.261Z,12.95
2023-01-13T15:08:53.259Z,7.75
2023-01-13T15:11:26.693Z,7.05
2023-01-13T15:14:01.459Z,9.55
2023-01-13T15:16:33.805Z,9.30
2023-01-13T15:19:02.202Z,7.93
2023-01-13T15:21:29.295Z,7.90
2023-01-13T15:23:56.203Z,9.00
2023-01-13T15:26:28.803Z,17.75
2023-01-13T15:28:57.321Z,10.93
2023-01-13T15:31:26.933Z,14.43
2023-01-13T15:33:54.132Z,12.15
2023-01-13T15:36:25.832Z,12.43
2023-01-13T15:38:52.884Z,13.70
2023-01-13T15:41:40.271Z,7.97
2023-01-13T15:44:26.187Z,11.23
2023-01-13T15:46:53.166Z,10.55
2023-01-13T15:49:37.048Z,13.32
2023-01-13T15:52:05.616Z,13.95
2023-01-13T15:54:32.446Z,14.40
2023-01-13T15:56:59.270Z,12.52
2023-01-13T15:59:27.967Z,16.05
2023-01-13T16:01:54.882Z,11.18
2023-01-13T16:04:21.661Z,8.07
2023-01-13T16:06:48.497Z,11.77
2023-01-13T16:09:16.857Z,9.30
2023-01-13T16:11:44.027Z,22.70
2023-01-13T16:14:10.903Z,11.75
2023-01-13T16:16:37.805Z,12.90
2023-01-13T16:19:04.692Z,14.10
2023-01-13T16:21:31.478Z,9.65
2023-01-13T16:23:58.534Z,22.65
2023-01-13T16:26:29.250Z,14.82
2023-01-13T16:28:57.639Z,12.13
2023-01-13T16:31:29.147Z,10.80
2023-01-13T16:33:56.156Z,9.70
2023-01-13T16:36:23.187Z,10.48
2023-01-13T16:38:52.432Z,10.20
2023-01-13T16:41:21.365Z,8.85
2023-01-13T16:43:49.025Z,15.77
2023-01-13T16:46:20.458Z,11.02
2023-01-13T16:48:47.954Z,12.07
2023-01-13T16:51:14.978Z,7.78
2023-01-13T16:53:41.889Z,11.23
2023-01-13T16:56:29.740Z,11.10
2023-01-13T16:59:05.609Z,6.90
2023-01-13T17:01:35.562Z,10.65
2023-01-13T17:04:02.765Z,17.33
2023-01-13T17:06:36.368Z,17.70
2023-01-13T17:09:06.909Z,9.37
2023-01-13T17:11:34.303Z,17.60
2023-01-13T17:14:01.189Z,15.40
2023-01-13T17:16:45.953Z,11.40
2023-01-13T17:19:13.287Z,9.70
2023-01-13T17:21:40.377Z,9.53
2023-01-13T17:24:08.037Z,12.35
2023-01-13T17:26:46.542Z,14.93
2023-01-13T17:29:27.206Z,9.80
2023-01-13T17:31:55.434Z,13.23
2023-01-13T17:34:22.345Z,11.80
2023-01-13T17:36:49.527Z,7.18
2023-01-13T17:39:18.770Z,7.10
2023-01-13T17:41:46.473Z,7.40
2023-01-13T17:44:15.268Z,5.25
2023-01-13T17:46:43.047Z,11.97
2023-01-13T17:49:12.178Z,9.32
2023-01-13T17:51:39.079Z,9.40
2023-01-13T17:54:05.914Z,6.00
2023-01-13T17:56:32.827Z,10.82
2023-01-13T17:58:59.702Z,10.83
2023-01-13T18:01:30.779Z,12.35
2023-01-13T18:03:57.627Z,12.30
2023-01-13T18:06:24.611Z,8.25
2023-01-13T18:08:52.071Z,8.18
2023-01-13T18:11:22.032Z,8.13
2023-01-13T18:13:51.636Z,9.23
2023-01-13T18:16:19.781Z,9.27
2023-01-13T18:18:49.170Z,7.63
2023-01-13T18:21:41.802Z,11.68
2023-01-13T18:24:32.070Z,8.87
2023-01-13T18:27:18.058Z,7.57
2023-01-13T18:29:46.201Z,5.30
2023-01-13T18:32:14.003Z,6.43
2023-01-13T18:34:40.762Z,7.82
2023-01-13T18:37:09.295Z,5.00
2023-01-13T18:39:39.007Z,7.75
2023-01-13T18:42:26.374Z,4.03
2023-01-13T18:44:54.180Z,5.45
2023-01-13T18:47:21.063Z,11.57
2023-01-13T18:49:48.864Z,4.60
2023-01-13T18:52:15.813Z,3.85
2023-01-13T18:54:42.616Z,5.88
2023-01-13T18:57:10.338Z,6.55
2023-01-13T18:59:37.236Z,3.47
2023-01-13T19:02:09.119Z,9.73
2023-01-13T19:04:36.166Z,7.13
2023-01-13T19:07:04.225Z,6.88
2023-01-13T19:09:31.160Z,7.45
2023-01-13T19:11:58.795Z,9.93
2023-01-13T19:14:34.688Z,9.70
2023-01-13T19:17:07.935Z,8.43
2023-01-13T19:19:37.852Z,10.50
2023-01-13T19:22:04.729Z,6.63
2023-01-13T19:24:31.567Z,6.38
2023-01-13T19:26:58.467Z,6.93
2023-01-13T19:29:25.420Z,12.43
2023-01-13T19:31:52.242Z,9.30
2023-01-13T19:34:19.130Z,8.05
2023-01-13T19:36:45.898Z,9.13
2023-01-13T19:39:12.791Z,7.13
2023-01-13T19:41:58.239Z,13.70
2023-01-13T19:44:43.609Z,11.45
2023-01-13T19:47:10.507Z,10.57
2023-01-13T19:49:37.541Z,5.90
2023-01-13T19:52:04.785Z,7.50
2023-01-13T19:54:31.597Z,16.25
2023-01-13T19:56:58.526Z,9.80
2023-01-13T19:59:29.282Z,10.18
2023-01-13T20:02:00.979Z,7.70
2023-01-13T20:04:39.592Z,10.40
2023-01-13T20:07:07.415Z,15.90
2023-01-13T20:09:35.602Z,10.70
2023-01-13T20:12:09.007Z,8.55
2023-01-13T20:14:36.446Z,8.48
2023-01-13T20:17:03.376Z,13.20
2023-01-13T20:19:30.206Z,9.73
2023-01-13T20:21:57.010Z,7.72
2023-01-13T20:24:26.067Z,14.15
2023-01-13T20:26:53.961Z,8.85
2023-01-13T20:29:24.077Z,7.37
2023-01-13T20:31:51.244Z,9.18
2023-01-13T20:34:19.174Z,10.93
2023-01-13T20:36:47.744Z,13.18
2023-01-13T20:39:20.140Z,9.48
2023-01-13T20:42:05.990Z,9.70
2023-01-13T20:44:33.325Z,12.32
2023-01-13T20:47:00.271Z,11.48
2023-01-13T20:49:27.876Z,10.50
2023-01-13T20:51:55.735Z,15.27
2023-01-13T20:54:25.250Z,14.07
2023-01-13T20:56:53.059Z,17.10
2023-01-13T20:59:19.974Z,9.30
2023-01-13T21:01:46.861Z,12.63
2023-01-13T21:04:13.897Z,8.65
2023-01-13T21:06:41.733Z,8.73
2023-01-13T21:09:09.022Z,11.45
2023-01-13T21:11:54.803Z,11.02
2023-01-13T21:14:42.580Z,8.32
2023-01-13T21:17:31.172Z,8.57
2023-01-13T21:19:58.069Z,12.20
2023-01-13T21:22:25.028Z,11.77
2023-01-13T21:24:51.781Z,8.90
2023-01-13T21:27:18.741Z,9.10
2023-01-13T21:29:46.322Z,9.10
2023-01-13T21:32:13.255Z,10.77
2023-01-13T21:34:40.455Z,10.10
2023-01-13T21:37:07.699Z,9.65
2023-01-13T21:39:34.643Z,10.02
2023-01-13T21:42:20.266Z,7.22
2023-01-13T21:45:05.963Z,13.03
2023-01-13T21:47:48.604Z,8.32
2023-01-13T21:50:20.931Z,13.15
2023-01-13T21:52:48.917Z,13.70
2023-01-13T21:55:29.110Z,10.95
2023-01-13T21:58:07.001Z,8.20
2023-01-13T22:00:34.273Z,9.50
2023-01-13T22:03:06.353Z,14.48
2023-01-13T22:05:33.579Z,11.18
2023-01-13T22:08:00.614Z,12.85
2023-01-13T22:10:30.090Z,12.23
2023-01-13T22:13:00.280Z,10.20
2023-01-13T22:15:29.062Z,12.50
2023-01-13T22:17:56.604Z,22.38
2023-01-13T22:20:23.645Z,9.18
2023-01-13T22:22:50.644Z,11.13
2023-01-13T22:25:19.971Z,13.05
2023-01-13T22:27:48.274Z,7.13
2023-01-13T22:30:21.716Z,11.93
2023-01-13T22:32:48.827Z,9.43
2023-01-13T22:35:16.448Z,11.60
2023-01-13T22:37:43.501Z,13.95
2023-01-13T22:40:11.831Z,12.63
2023-01-13T22:42:40.862Z,9.57
2023-01-13T22:45:11.824Z,9.13
2023-01-13T22:47:38.970Z,12.43
2023-01-13T22:50:07.408Z,8.85
2023-01-13T22:52:35.205Z,12.73
2023-01-13T22:55:02.054Z,11.10
2023-01-13T22:57:36.389Z,11.50
2023-01-13T23:00:14.784Z,11.53
2023-01-13T23:02:41.833Z,9.02
2023-01-13T23:05:08.901Z,13.82
2023-01-13T23:07:36.106Z,15.18
2023-01-13T23:10:03.843Z,11.05
2023-01-13T23:12:30.723Z,10.40
2023-01-13T23:14:57.471Z,10.90
2023-01-13T23:17:24.297Z,12.02
2023-01-13T23:19:51.156Z,14.85
2023-01-13T23:22:17.930Z,12.55
2023-01-13T23:24:44.765Z,11.70
2023-01-13T23:27:11.670Z,11.93
2023-01-13T23:29:38.519Z,11.85
2023-01-13T23:32:05.684Z,10.23
2023-01-13T23:34:32.764Z,12.75
2023-01-13T23:36:59.574Z,10.33
2023-01-13T23:39:26.700Z,14.07
2023-01-13T23:41:54.456Z,13.05
2023-01-13T23:44:21.155Z,11.32
2023-01-13T23:46:48.021Z,14.57
2023-01-13T23:49:14.786Z,13.73
2023-01-13T23:51:41.754Z,14.05
2023-01-13T23:54:08.642Z,9.60
2023-01-13T23:56:39.270Z,14.63
2023-01-13T23:59:06.497Z,12.35
